Sch-135 Galibier — PBIB — position and weather

sailwx.info

Track history (hours):
 
Tides and Currents Weather Stations Pressure Air Temp Water Temp Dewpoint Dewpoint Depression Visibility Wind Speed Wind Dir Waves Ship Positions

Sch-135 Galibier

Last reported at 2017-Aug-17 17:31 UTC. Time now 2017-Aug-17 17:29 UTC.
Position N 51°15' E 002°29'.

Length 35 m.

MMSI: 244630637.

Date/timePositionNaut miles runAvg speedWind from/ knotsBaromVisibWave heightAir tempDewpointWater temp
2017-Aug-17 17:31N 51°15' E 002°29'0 0.4
2017-Aug-17 17:00N 51°16' E 002°30'2 4.5
2017-Aug-17 16:31N 51°18' E 002°31'0 1.0
2017-Aug-17 16:00N 51°18' E 002°31'1 2.7
2017-Aug-17 15:30N 51°20' E 002°32'2 4.1
2017-Aug-17 15:00N 51°18' E 002°34'3 5.5
2017-Aug-17 14:30N 51°17' E 002°38'0 0.6
2017-Aug-17 14:00N 51°18' E 002°38'0 0.9
2017-Aug-17 13:30N 51°18' E 002°39'1 1.1
2017-Aug-17 13:00N 51°18' E 002°39'0 0.8
2017-Aug-17 12:30N 51°19' E 002°39'1 1.5
2017-Aug-17 12:00N 51°19' E 002°40'1 2.5
2017-Aug-17 11:30N 51°18' E 002°39'0 0.8
2017-Aug-17 11:00N 51°18' E 002°38'1 2.7
2017-Aug-17 10:30N 51°17' E 002°37'0 0.5
2017-Aug-17 10:00N 51°17' E 002°37'1 1.1
2017-Aug-17 09:30N 51°16' E 002°36'0 0.8
2017-Aug-17 09:01N 51°16' E 002°36'0 0.8
2017-Aug-17 08:30N 51°16' E 002°36'1 1.1
2017-Aug-17 08:00N 51°15' E 002°35'1 2.9
2017-Aug-17 07:31N 51°14' E 002°33'1 1.6
2017-Aug-17 07:00N 51°15' E 002°35'0 0.9
2017-Aug-17 06:30N 51°14' E 002°34'1 1.6
2017-Aug-17 06:00N 51°15' E 002°33'2 3.8
2017-Aug-17 05:30N 51°16' E 002°35'0 0.8
2017-Aug-17 05:00N 51°16' E 002°35'1 2.4
2017-Aug-17 04:30N 51°17' E 002°36'2 3.3
2017-Aug-17 04:00N 51°16' E 002°35'1 1.3
2017-Aug-17 03:31N 51°16' E 002°36'3 7.0
2017-Aug-17 03:00N 51°19' E 002°37'4 8.4
2017-Aug-17 02:30N 51°22' E 002°32'510.0
2017-Aug-17 02:00N 51°27' E 002°33'510.7
2017-Aug-17 01:30N 51°32' E 002°36'610.2
2017-Aug-17 00:56N 51°38' E 002°37'410.0
2017-Aug-17 00:29N 51°42' E 002°36'5 9.8
2017-Aug-17 00:00N 51°47' E 002°36'5 8.7
2017-Aug-16 23:24N 51°52' E 002°36'4 9.2
2017-Aug-16 23:00N 51°56' E 002°36'32 5.3
2017-Aug-16 16:57N 52°28' E 002°33'3 1.1
2017-Aug-16 13:59N 52°31' E 002°34'7 2.0
2017-Aug-16 10:21N 52°30' E 002°46'1 1.3
2017-Aug-16 09:51N 52°30' E 002°45'0 1.1
2017-Aug-16 09:30N 52°29' E 002°46'2 1.2
2017-Aug-16 07:53N 52°27' E 002°45'3 5.0
2017-Aug-16 07:21N 52°26' E 002°48'411.1
2017-Aug-16 07:00N 52°22' E 002°46'4 3.8
2017-Aug-16 05:50N 52°18' E 002°45'2 1.5
2017-Aug-16 04:26N 52°20' E 002°44'0 0.7
2017-Aug-16 04:00N 52°20' E 002°44'3 4.5
2017-Aug-16 03:20N 52°17' E 002°43'0 1.1
2017-Aug-16 03:00N 52°17' E 002°44'5 3.4
2017-Aug-16 01:34N 52°22' E 002°44'1 8.5
2017-Aug-16 01:30N 52°23' E 002°44'4 8.4
2017-Aug-16 01:00N 52°27' E 002°44'4 8.1
2017-Aug-16 00:30N 52°31' E 002°44'6 7.5
2017-Aug-15 23:40N 52°37' E 002°43'1 7.3
2017-Aug-15 23:30N 52°39' E 002°43'11 0.6
2017-Aug-15 05:38N 52°31' E 002°32'1 7.0
2017-Aug-15 05:30N 52°30' E 002°31'2 3.5
2017-Aug-15 04:53N 52°28' E 002°30'410.1
2017-Aug-15 04:30N 52°24' E 002°31'20 9.4
2017-Aug-15 02:23N 52°04' E 002°36'3 8.9
2017-Aug-15 02:00N 52°01' E 002°36'5 8.9
2017-Aug-15 01:30N 51°57' E 002°37'5 8.9
2017-Aug-15 00:59N 51°52' E 002°39'4 8.9
2017-Aug-15 00:29N 51°48' E 002°40'4 9.2
2017-Aug-15 00:00N 51°43' E 002°41'5 9.5
2017-Aug-14 23:30N 51°39' E 002°43'5 9.8
2017-Aug-14 23:00N 51°34' E 002°45'510.0
2017-Aug-14 22:30N 51°29' E 002°48'510.1
2017-Aug-14 22:00N 51°24' E 002°50'510.3
2017-Aug-14 21:30N 51°19' E 002°51'510.2
2017-Aug-14 21:01N 51°15' E 002°55'1 2.5
2017-Aug-14 20:30N 51°14' E 002°56'0 0.6
2017-Aug-14 20:00N 51°14' E 002°56'4 7.2
2017-Aug-14 19:30N 51°15' E 002°50'510.4
2017-Aug-14 19:00N 51°15' E 002°42'4 7.0
2017-Aug-14 18:30N 51°17' E 002°37'0 1.0
2017-Aug-14 18:01N 51°16' E 002°36'1 2.8
2017-Aug-14 17:30N 51°15' E 002°35'1 1.2
2017-Aug-14 17:00N 51°16' E 002°35'0 0.9
2017-Aug-14 16:30N 51°15' E 002°35'0 0.4
2017-Aug-14 16:00N 51°15' E 002°35'1 1.3
2017-Aug-14 15:30N 51°14' E 002°34'1 2.1
2017-Aug-14 15:00N 51°14' E 002°33'2 3.4
2017-Aug-14 14:30N 51°14' E 002°31'2 3.9
2017-Aug-14 14:00N 51°14' E 002°28'0 1.0
2017-Aug-14 13:30N 51°15' E 002°28'0 0.8
2017-Aug-14 13:00N 51°15' E 002°28'2 4.9
2017-Aug-14 12:30N 51°17' E 002°30'0 0.8
2017-Aug-14 12:01N 51°18' E 002°30'0 0.4
2017-Aug-14 11:30N 51°18' E 002°30'1 1.4
2017-Aug-14 11:00N 51°18' E 002°31'1 2.6
2017-Aug-14 10:30N 51°20' E 002°32'3 6.0
2017-Aug-14 10:00N 51°17' E 002°30'2 3.3
2017-Aug-14 09:30N 51°15' E 002°29'0 0.6
2017-Aug-14 09:01N 51°15' E 002°30'1 1.2
2017-Aug-14 08:31N 51°16' E 002°29'0 0.9
2017-Aug-14 08:00N 51°15' E 002°29'1 2.5
2017-Aug-14 07:30N 51°14' E 002°28'1 1.7
2017-Aug-14 07:00N 51°15' E 002°28'1 1.7
2017-Aug-14 06:30N 51°14' E 002°27'1 1.3
2017-Aug-14 06:00N 51°15' E 002°27'1 2.7
2017-Aug-14 05:31N 51°14' E 002°26'1 2.1
2017-Aug-14 05:00N 51°13' E 002°27'0 0.9
2017-Aug-14 04:30N 51°13' E 002°27'1 1.1
2017-Aug-14 04:00N 51°13' E 002°26'1 1.4
2017-Aug-14 03:31N 51°13' E 002°27'1 1.4
2017-Aug-14 03:00N 51°12' E 002°26'2 4.2
2017-Aug-14 02:30N 51°12' E 002°29'3 6.8
2017-Aug-14 02:00N 51°13' E 002°34'4 7.6
2017-Aug-14 01:30N 51°15' E 002°40'4 8.2
2017-Aug-14 01:00N 51°17' E 002°45'4 8.6
2017-Aug-14 00:30N 51°19' E 002°52'4 9.0
2017-Aug-14 00:01N 51°21' E 002°58'4 8.8
2017-Aug-13 23:30N 51°22' E 003°05'4 8.6
2017-Aug-13 23:01N 51°24' E 003°11'5 9.3
2017-Aug-13 22:30N 51°25' E 003°18'5 9.7
2017-Aug-13 22:00N 51°25' E 003°26'511.0
2017-Aug-13 21:31N 51°26' E 003°35'1 1.4
2017-Aug-13 21:01N 51°27' E 003°35'0 0.3
2017-Aug-13 20:30N 51°27' E 003°35'0 0.0
2017-Aug-13 20:00N 51°27' E 003°35'0 0.0
2017-Aug-13 19:30N 51°27' E 003°35'0 0.0
2017-Aug-13 19:00N 51°27' E 003°35'0 0.0
2017-Aug-13 18:31N 51°27' E 003°35'0 0.0
2017-Aug-13 18:00N 51°27' E 003°35'0 0.0
2017-Aug-13 17:30N 51°27' E 003°35'0 0.0
2017-Aug-13 17:00N 51°27' E 003°35'0 0.0
2017-Aug-13 16:30N 51°27' E 003°35'0 0.0
2017-Aug-13 16:01N 51°27' E 003°35'0 0.0
2017-Aug-13 15:30N 51°27' E 003°35'0 0.0
2017-Aug-13 15:00N 51°27' E 003°35'0 0.0
2017-Aug-13 14:30N 51°27' E 003°35'0 0.0
2017-Aug-13 14:00N 51°27' E 003°35'0 0.0
2017-Aug-13 13:30N 51°27' E 003°35'0 0.0
2017-Aug-13 13:01N 51°27' E 003°35'0 0.0
2017-Aug-13 12:31N 51°27' E 003°35'0 0.0
2017-Aug-13 12:01N 51°27' E 003°35'0 0.0
2017-Aug-13 11:30N 51°27' E 003°35'0 0.0
2017-Aug-13 11:00N 51°27' E 003°35'0 0.0
2017-Aug-13 10:31N 51°27' E 003°35'0 0.0
2017-Aug-13 10:00N 51°27' E 003°35'0 0.0
2017-Aug-13 09:30N 51°27' E 003°35'0 0.0
2017-Aug-13 09:00N 51°27' E 003°35'0 0.0
2017-Aug-13 08:30N 51°27' E 003°35'0 0.0
2017-Aug-13 08:01N 51°27' E 003°35'0 0.0
2017-Aug-13 07:31N 51°27' E 003°35'0 0.0
2017-Aug-13 07:01N 51°27' E 003°35'0 0.0
2017-Aug-13 06:30N 51°27' E 003°35'0 0.0
2017-Aug-13 06:01N 51°27' E 003°35'0 0.0
2017-Aug-13 05:30N 51°27' E 003°35'0 0.0
2017-Aug-13 05:01N 51°27' E 003°35'0 0.0
2017-Aug-13 04:30N 51°27' E 003°35'0 0.0
2017-Aug-13 04:00N 51°27' E 003°35'0 0.0
2017-Aug-13 03:30N 51°27' E 003°35'0 0.0
2017-Aug-13 03:00N 51°27' E 003°35'0 0.0
2017-Aug-13 02:31N 51°27' E 003°35'0 0.0
2017-Aug-13 02:01N 51°27' E 003°35'0 0.0
2017-Aug-13 01:31N 51°27' E 003°35'0 0.0
2017-Aug-13 01:01N 51°27' E 003°35'0 0.0
2017-Aug-13 00:30N 51°27' E 003°35'0 0.0
2017-Aug-13 00:00N 51°27' E 003°35'0 0.0
2017-Aug-12 23:30N 51°27' E 003°35'0 0.0
2017-Aug-12 23:01N 51°27' E 003°35'0 0.0
2017-Aug-12 22:31N 51°27' E 003°35'0 0.0
2017-Aug-12 22:00N 51°27' E 003°35'0 0.0
2017-Aug-12 21:30N 51°27' E 003°35'0 0.0
2017-Aug-12 21:01N 51°27' E 003°35'0 0.0
2017-Aug-12 20:30N 51°27' E 003°35'0 0.0
2017-Aug-12 19:59N 51°27' E 003°35'0 0.0
2017-Aug-12 19:30N 51°27' E 003°35'0 0.0
2017-Aug-12 19:01N 51°27' E 003°35'0 0.0
2017-Aug-12 18:30N 51°27' E 003°35'0 0.0
2017-Aug-12 18:00N 51°27' E 003°35'0 0.0
2017-Aug-12 17:31N 51°27' E 003°35'0 0.0
2017-Aug-12 17:00N 51°27' E 003°35'0 0.0
2017-Aug-12 16:30N 51°27' E 003°35'0 0.0
2017-Aug-12 16:00N 51°27' E 003°35'0 0.0
2017-Aug-12 15:31N 51°27' E 003°35'0 0.0
2017-Aug-12 15:00N 51°27' E 003°35'0 0.0
2017-Aug-12 14:30N 51°27' E 003°35'0 0.0
2017-Aug-12 14:01N 51°27' E 003°35'0 0.0
2017-Aug-12 13:31N 51°27' E 003°35'0 0.0
2017-Aug-12 13:00N 51°27' E 003°35'0 0.0
2017-Aug-12 12:29N 51°27' E 003°35'0 0.0
2017-Aug-12 12:00N 51°27' E 003°35'0 0.0
2017-Aug-12 11:31N 51°27' E 003°35'0 0.0
2017-Aug-12 11:00N 51°27' E 003°35'0 0.0
2017-Aug-12 10:30N 51°27' E 003°35'0 0.0
2017-Aug-12 10:01N 51°27' E 003°35'0 0.0
2017-Aug-12 09:31N 51°27' E 003°35'0 0.0
2017-Aug-12 09:01N 51°27' E 003°35'0 0.0
2017-Aug-12 08:30N 51°27' E 003°35'0 0.0
2017-Aug-12 08:01N 51°27' E 003°35'0 0.0
2017-Aug-12 07:30N 51°27' E 003°35'0 0.0
2017-Aug-12 07:01N 51°27' E 003°35'0 0.0
2017-Aug-12 06:30N 51°27' E 003°35'0 0.0
2017-Aug-12 06:00N 51°27' E 003°35'0 0.0
2017-Aug-12 05:30N 51°27' E 003°35'0 0.0
2017-Aug-12 05:01N 51°27' E 003°35'0 0.0
2017-Aug-12 04:31N 51°27' E 003°35'0 0.0
2017-Aug-12 04:01N 51°27' E 003°35'0 0.0
2017-Aug-12 03:31N 51°27' E 003°35'0 0.0
2017-Aug-12 03:00N 51°27' E 003°35'0 0.0
2017-Aug-12 02:30N 51°27' E 003°35'0 0.0
2017-Aug-12 02:01N 51°27' E 003°35'0 0.0
2017-Aug-12 01:30N 51°27' E 003°35'0 0.0
2017-Aug-12 01:01N 51°27' E 003°35'0 0.0
2017-Aug-12 00:30N 51°27' E 003°35'0 0.0
2017-Aug-12 00:00N 51°27' E 003°35'0 0.0
2017-Aug-11 23:31N 51°27' E 003°35'0 0.0
2017-Aug-11 23:00N 51°27' E 003°35'0 0.0
2017-Aug-11 22:30N 51°27' E 003°35'0 0.0
2017-Aug-11 22:00N 51°27' E 003°35'0 0.0
2017-Aug-11 21:31N 51°27' E 003°35'0 0.0
2017-Aug-11 21:00N 51°27' E 003°35'0 0.0
2017-Aug-11 20:31N 51°27' E 003°35'0 0.0
2017-Aug-11 20:00N 51°27' E 003°35'0 0.0
2017-Aug-11 19:30N 51°27' E 003°35'0 0.0
2017-Aug-11 19:00N 51°27' E 003°35'0 0.0
2017-Aug-11 18:31N 51°27' E 003°35'0 0.0
2017-Aug-11 18:00N 51°27' E 003°35'0 0.0
2017-Aug-11 17:30N 51°27' E 003°35'0 0.0
2017-Aug-11 17:00N 51°27' E 003°35'0 0.0
2017-Aug-11 16:30N 51°27' E 003°35'0 0.0
2017-Aug-11 16:01N 51°27' E 003°35'0 0.0
2017-Aug-11 15:30N 51°27' E 003°35'0 0.0
2017-Aug-11 15:00N 51°27' E 003°35'0 0.0
2017-Aug-11 14:00N 51°27' E 003°35'0 0.0
2017-Aug-11 13:30N 51°27' E 003°35'0 0.0
2017-Aug-11 13:00N 51°27' E 003°35'0 0.0
2017-Aug-11 12:30N 51°27' E 003°35'0 0.0
2017-Aug-11 12:00N 51°27' E 003°35'0 0.0
2017-Aug-11 11:30N 51°27' E 003°35'0 0.0
2017-Aug-11 11:00N 51°27' E 003°35'0 0.0
2017-Aug-11 10:30N 51°27' E 003°35'0 0.0
2017-Aug-11 09:59N 51°27' E 003°35'0 0.0
2017-Aug-11 09:30N 51°27' E 003°35'0 0.0
2017-Aug-11 09:01N 51°27' E 003°35'0 0.0
2017-Aug-11 08:31N 51°27' E 003°35'0 0.0
2017-Aug-11 07:58N 51°27' E 003°35'0 0.0
2017-Aug-11 07:30N 51°27' E 003°35'0 0.0
2017-Aug-11 07:00N 51°27' E 003°35'0 0.0
2017-Aug-11 06:30N 51°27' E 003°35'0 0.0
2017-Aug-11 05:59N 51°27' E 003°35'0 0.0
2017-Aug-11 05:30N 51°27' E 003°35'0 0.0
2017-Aug-11 05:00N 51°27' E 003°35'0 0.0
2017-Aug-11 04:30N 51°27' E 003°35'0 0.0
2017-Aug-11 04:00N 51°27' E 003°35'0 0.0
2017-Aug-11 03:30N 51°27' E 003°35'0 0.0
2017-Aug-11 03:00N 51°27' E 003°35'0 0.0
2017-Aug-11 02:30N 51°27' E 003°35'0 0.0
2017-Aug-11 02:00N 51°27' E 003°35'0 0.0
2017-Aug-11 01:30N 51°27' E 003°35'0 0.0
2017-Aug-11 01:00N 51°27' E 003°35'0 0.0
2017-Aug-11 00:30N 51°27' E 003°35'0 0.3
2017-Aug-11 00:00N 51°27' E 003°35'0 0.3
2017-Aug-10 23:30N 51°27' E 003°35'0 0.0
2017-Aug-10 23:00N 51°27' E 003°35'0 0.5
2017-Aug-10 22:30N 51°27' E 003°36'2 4.8
2017-Aug-10 22:01N 51°26' E 003°32'5 9.2
2017-Aug-10 21:30N 51°25' E 003°25'4 8.8
2017-Aug-10 21:00N 51°25' E 003°18'4 8.0
2017-Aug-10 20:30N 51°25' E 003°11'4 8.3
2017-Aug-10 20:00N 51°25' E 003°05'4 8.5
2017-Aug-10 19:30N 51°24' E 002°58'4 8.6
2017-Aug-10 19:00N 51°24' E 002°51'1 1.4
2017-Aug-10 18:30N 51°25' E 002°50'0 0.7
2017-Aug-10 18:01N 51°25' E 002°51'1 1.4
2017-Aug-10 17:31N 51°24' E 002°50'1 2.5
2017-Aug-10 17:01N 51°23' E 002°48'3 5.3
2017-Aug-10 16:30N 51°22' E 002°45'4 7.9
2017-Aug-10 16:01N 51°19' E 002°41'2 4.4
2017-Aug-10 15:31N 51°17' E 002°38'1 2.8
2017-Aug-10 15:00N 51°16' E 002°36'0 0.7
2017-Aug-10 14:30N 51°16' E 002°36'1 2.0
2017-Aug-10 14:00N 51°15' E 002°36'1 2.2
2017-Aug-10 13:31N 51°14' E 002°34'1 1.9
2017-Aug-10 13:00N 51°14' E 002°33'0 0.8
2017-Aug-10 12:30N 51°14' E 002°34'0 0.6
2017-Aug-10 12:00N 51°14' E 002°34'1 1.9
2017-Aug-10 11:31N 51°15' E 002°35'4 8.0
2017-Aug-10 11:00N 51°14' E 002°29'1 1.8
2017-Aug-10 10:30N 51°14' E 002°28'0 0.9
2017-Aug-10 10:00N 51°15' E 002°28'0 0.6
2017-Aug-10 09:30N 51°15' E 002°28'1 1.3
2017-Aug-10 09:00N 51°15' E 002°29'1 2.9
2017-Aug-10 08:31N 51°16' E 002°31'2 3.9
2017-Aug-10 08:00N 51°18' E 002°30'1 1.4
2017-Aug-10 07:30N 51°18' E 002°31'1 2.8
2017-Aug-10 07:00N 51°19' E 002°32'1 1.8
2017-Aug-10 06:30N 51°19' E 002°31'0 0.6
2017-Aug-10 06:00N 51°19' E 002°31'0 1.0
2017-Aug-10 05:31N 51°19' E 002°32'4 7.9
2017-Aug-10 05:00N 51°18' E 002°38'0 0.6
2017-Aug-10 04:30N 51°18' E 002°38'1 2.2
2017-Aug-10 04:00N 51°17' E 002°38'1 1.3
2017-Aug-10 03:30N 51°18' E 002°38'3 5.1
2017-Aug-10 03:00N 51°15' E 002°36'1 2.4
2017-Aug-10 02:30N 51°16' E 002°37'1 2.2
2017-Aug-10 02:00N 51°17' E 002°38'1 2.9
2017-Aug-10 01:30N 51°19' E 002°39'2 3.9
2017-Aug-10 01:01N 51°17' E 002°37'2 3.5
2017-Aug-10 00:30N 51°16' E 002°38'2 4.1
2017-Aug-10 00:00N 51°15' E 002°41'2 4.6
2017-Aug-09 23:30N 51°15' E 002°45'3 5.3
2017-Aug-09 23:00N 51°15' E 002°49'3 5.6
2017-Aug-09 22:30N 51°15' E 002°53'2 3.3
2017-Aug-09 22:00N 51°14' E 002°56'0 0.4
2017-Aug-09 21:30N 51°14' E 002°56'0 0.4
2017-Aug-09 21:00N 51°14' E 002°56'2 3.6
2017-Aug-09 20:31N 51°15' E 002°53'5 9.1
2017-Aug-09 20:00N 51°15' E 002°46'4 8.8
2017-Aug-09 19:30N 51°15' E 002°39'3 5.4
2017-Aug-09 19:00N 51°16' E 002°35'0 0.8
2017-Aug-09 18:31N 51°16' E 002°35'1 1.3
2017-Aug-09 18:00N 51°16' E 002°36'1 2.7
2017-Aug-09 17:30N 51°15' E 002°34'1 1.2
2017-Aug-09 17:00N 51°15' E 002°35'2 3.3
2017-Aug-09 16:30N 51°16' E 002°32'1 2.9
2017-Aug-09 16:00N 51°16' E 002°30'1 1.7
2017-Aug-09 15:30N 51°15' E 002°30'0 0.4
2017-Aug-09 15:00N 51°15' E 002°30'1 1.1
2017-Aug-09 14:30N 51°15' E 002°29'1 2.9
2017-Aug-09 14:00N 51°14' E 002°27'1 1.2
2017-Aug-09 13:30N 51°13' E 002°27'0 1.0
2017-Aug-09 13:00N 51°13' E 002°27'1 0.9
2017-Aug-09 12:21N 51°14' E 002°27'1 2.6
2017-Aug-09 12:00N 51°14' E 002°28'0 0.8
2017-Aug-09 11:30N 51°14' E 002°27'1 1.2
2017-Aug-09 11:00N 51°15' E 002°26'1 1.2
2017-Aug-09 10:30N 51°15' E 002°27'1 1.0
2017-Aug-09 10:01N 51°15' E 002°27'1 2.9
2017-Aug-09 09:30N 51°16' E 002°29'2 3.8
2017-Aug-09 09:00N 51°18' E 002°30'0 1.0
2017-Aug-09 08:30N 51°18' E 002°31'1 2.6
2017-Aug-09 08:00N 51°19' E 002°32'2 4.9
2017-Aug-09 07:30N 51°17' E 002°30'0 0.9
2017-Aug-09 07:00N 51°18' E 002°30'1 1.8
2017-Aug-09 06:31N 51°18' E 002°32'1 1.6
2017-Aug-09 06:00N 51°18' E 002°31'0 0.7
2017-Aug-09 05:30N 51°19' E 002°31'1 1.1
2017-Aug-09 05:00N 51°19' E 002°32'1 1.7
2017-Aug-09 04:30N 51°18' E 002°31'0 1.0
2017-Aug-09 04:00N 51°18' E 002°31'1 1.2
2017-Aug-09 03:30N 51°17' E 002°31'1 1.2
2017-Aug-09 03:00N 51°18' E 002°31'3 5.6
2017-Aug-09 02:30N 51°20' E 002°30'3 6.8
2017-Aug-09 02:00N 51°24' E 002°31'3 6.6
2017-Aug-09 01:30N 51°27' E 002°33'3 7.0
2017-Aug-09 01:00N 51°30' E 002°35'49 2.9
2017-Aug-08 07:48N 52°19' E 002°38'0 0.9
2017-Aug-08 07:21N 52°19' E 002°39'  
Track history (hours):
 
Tides and Currents Weather Stations Pressure Air Temp Water Temp Dewpoint Dewpoint Depression Visibility Wind Speed Wind Dir Waves Ship Positions

Sch-135 Galibier

Last reported at 2017-Aug-17 17:31 UTC. Time now 2017-Aug-17 17:29 UTC.
Position N 51°15' E 002°29'.

Length 35 m.

MMSI: 244630637.

Date/timePositionNaut miles runAvg speedWind from/ knotsBaromVisibWave heightAir tempDewpointWater temp
2017-Aug-17 17:31N 51°15' E 002°29'0 0.4
2017-Aug-17 17:00N 51°16' E 002°30'2 4.5
2017-Aug-17 16:31N 51°18' E 002°31'0 1.0
2017-Aug-17 16:00N 51°18' E 002°31'1 2.7
2017-Aug-17 15:30N 51°20' E 002°32'2 4.1
2017-Aug-17 15:00N 51°18' E 002°34'3 5.5
2017-Aug-17 14:30N 51°17' E 002°38'0 0.6
2017-Aug-17 14:00N 51°18' E 002°38'0 0.9
2017-Aug-17 13:30N 51°18' E 002°39'1 1.1
2017-Aug-17 13:00N 51°18' E 002°39'0 0.8
2017-Aug-17 12:30N 51°19' E 002°39'1 1.5
2017-Aug-17 12:00N 51°19' E 002°40'1 2.5
2017-Aug-17 11:30N 51°18' E 002°39'0 0.8
2017-Aug-17 11:00N 51°18' E 002°38'1 2.7
2017-Aug-17 10:30N 51°17' E 002°37'0 0.5
2017-Aug-17 10:00N 51°17' E 002°37'1 1.1
2017-Aug-17 09:30N 51°16' E 002°36'0 0.8
2017-Aug-17 09:01N 51°16' E 002°36'0 0.8
2017-Aug-17 08:30N 51°16' E 002°36'1 1.1
2017-Aug-17 08:00N 51°15' E 002°35'1 2.9
2017-Aug-17 07:31N 51°14' E 002°33'1 1.6
2017-Aug-17 07:00N 51°15' E 002°35'0 0.9
2017-Aug-17 06:30N 51°14' E 002°34'1 1.6
2017-Aug-17 06:00N 51°15' E 002°33'2 3.8
2017-Aug-17 05:30N 51°16' E 002°35'0 0.8
2017-Aug-17 05:00N 51°16' E 002°35'1 2.4
2017-Aug-17 04:30N 51°17' E 002°36'2 3.3
2017-Aug-17 04:00N 51°16' E 002°35'1 1.3
2017-Aug-17 03:31N 51°16' E 002°36'3 7.0
2017-Aug-17 03:00N 51°19' E 002°37'4 8.4
2017-Aug-17 02:30N 51°22' E 002°32'510.0
2017-Aug-17 02:00N 51°27' E 002°33'510.7
2017-Aug-17 01:30N 51°32' E 002°36'610.2
2017-Aug-17 00:56N 51°38' E 002°37'410.0
2017-Aug-17 00:29N 51°42' E 002°36'5 9.8
2017-Aug-17 00:00N 51°47' E 002°36'5 8.7
2017-Aug-16 23:24N 51°52' E 002°36'4 9.2
2017-Aug-16 23:00N 51°56' E 002°36'32 5.3
2017-Aug-16 16:57N 52°28' E 002°33'3 1.1
2017-Aug-16 13:59N 52°31' E 002°34'7 2.0
2017-Aug-16 10:21N 52°30' E 002°46'1 1.3
2017-Aug-16 09:51N 52°30' E 002°45'0 1.1
2017-Aug-16 09:30N 52°29' E 002°46'2 1.2
2017-Aug-16 07:53N 52°27' E 002°45'3 5.0
2017-Aug-16 07:21N 52°26' E 002°48'411.1
2017-Aug-16 07:00N 52°22' E 002°46'4 3.8
2017-Aug-16 05:50N 52°18' E 002°45'2 1.5
2017-Aug-16 04:26N 52°20' E 002°44'0 0.7
2017-Aug-16 04:00N 52°20' E 002°44'3 4.5
2017-Aug-16 03:20N 52°17' E 002°43'0 1.1
2017-Aug-16 03:00N 52°17' E 002°44'5 3.4
2017-Aug-16 01:34N 52°22' E 002°44'1 8.5
2017-Aug-16 01:30N 52°23' E 002°44'4 8.4
2017-Aug-16 01:00N 52°27' E 002°44'4 8.1
2017-Aug-16 00:30N 52°31' E 002°44'6 7.5
2017-Aug-15 23:40N 52°37' E 002°43'1 7.3
2017-Aug-15 23:30N 52°39' E 002°43'11 0.6
2017-Aug-15 05:38N 52°31' E 002°32'1 7.0
2017-Aug-15 05:30N 52°30' E 002°31'2 3.5
2017-Aug-15 04:53N 52°28' E 002°30'410.1
2017-Aug-15 04:30N 52°24' E 002°31'20 9.4
2017-Aug-15 02:23N 52°04' E 002°36'3 8.9
2017-Aug-15 02:00N 52°01' E 002°36'5 8.9
2017-Aug-15 01:30N 51°57' E 002°37'5 8.9
2017-Aug-15 00:59N 51°52' E 002°39'4 8.9
2017-Aug-15 00:29N 51°48' E 002°40'4 9.2
2017-Aug-15 00:00N 51°43' E 002°41'5 9.5
2017-Aug-14 23:30N 51°39' E 002°43'5 9.8
2017-Aug-14 23:00N 51°34' E 002°45'510.0
2017-Aug-14 22:30N 51°29' E 002°48'510.1
2017-Aug-14 22:00N 51°24' E 002°50'510.3
2017-Aug-14 21:30N 51°19' E 002°51'510.2
2017-Aug-14 21:01N 51°15' E 002°55'1 2.5
2017-Aug-14 20:30N 51°14' E 002°56'0 0.6
2017-Aug-14 20:00N 51°14' E 002°56'4 7.2
2017-Aug-14 19:30N 51°15' E 002°50'510.4
2017-Aug-14 19:00N 51°15' E 002°42'4 7.0
2017-Aug-14 18:30N 51°17' E 002°37'0 1.0
2017-Aug-14 18:01N 51°16' E 002°36'1 2.8
2017-Aug-14 17:30N 51°15' E 002°35'1 1.2
2017-Aug-14 17:00N 51°16' E 002°35'0 0.9
2017-Aug-14 16:30N 51°15' E 002°35'0 0.4
2017-Aug-14 16:00N 51°15' E 002°35'1 1.3
2017-Aug-14 15:30N 51°14' E 002°34'1 2.1
2017-Aug-14 15:00N 51°14' E 002°33'2 3.4
2017-Aug-14 14:30N 51°14' E 002°31'2 3.9
2017-Aug-14 14:00N 51°14' E 002°28'0 1.0
2017-Aug-14 13:30N 51°15' E 002°28'0 0.8
2017-Aug-14 13:00N 51°15' E 002°28'2 4.9
2017-Aug-14 12:30N 51°17' E 002°30'0 0.8
2017-Aug-14 12:01N 51°18' E 002°30'0 0.4
2017-Aug-14 11:30N 51°18' E 002°30'1 1.4
2017-Aug-14 11:00N 51°18' E 002°31'1 2.6
2017-Aug-14 10:30N 51°20' E 002°32'3 6.0
2017-Aug-14 10:00N 51°17' E 002°30'2 3.3
2017-Aug-14 09:30N 51°15' E 002°29'0 0.6
2017-Aug-14 09:01N 51°15' E 002°30'1 1.2
2017-Aug-14 08:31N 51°16' E 002°29'0 0.9
2017-Aug-14 08:00N 51°15' E 002°29'1 2.5
2017-Aug-14 07:30N 51°14' E 002°28'1 1.7
2017-Aug-14 07:00N 51°15' E 002°28'1 1.7
2017-Aug-14 06:30N 51°14' E 002°27'1 1.3
2017-Aug-14 06:00N 51°15' E 002°27'1 2.7
2017-Aug-14 05:31N 51°14' E 002°26'1 2.1
2017-Aug-14 05:00N 51°13' E 002°27'0 0.9
2017-Aug-14 04:30N 51°13' E 002°27'1 1.1
2017-Aug-14 04:00N 51°13' E 002°26'1 1.4
2017-Aug-14 03:31N 51°13' E 002°27'1 1.4
2017-Aug-14 03:00N 51°12' E 002°26'2 4.2
2017-Aug-14 02:30N 51°12' E 002°29'3 6.8
2017-Aug-14 02:00N 51°13' E 002°34'4 7.6
2017-Aug-14 01:30N 51°15' E 002°40'4 8.2
2017-Aug-14 01:00N 51°17' E 002°45'4 8.6
2017-Aug-14 00:30N 51°19' E 002°52'4 9.0
2017-Aug-14 00:01N 51°21' E 002°58'4 8.8
2017-Aug-13 23:30N 51°22' E 003°05'4 8.6
2017-Aug-13 23:01N 51°24' E 003°11'5 9.3
2017-Aug-13 22:30N 51°25' E 003°18'5 9.7
2017-Aug-13 22:00N 51°25' E 003°26'511.0
2017-Aug-13 21:31N 51°26' E 003°35'1 1.4
2017-Aug-13 21:01N 51°27' E 003°35'0 0.3
2017-Aug-13 20:30N 51°27' E 003°35'0 0.0
2017-Aug-13 20:00N 51°27' E 003°35'0 0.0
2017-Aug-13 19:30N 51°27' E 003°35'0 0.0
2017-Aug-13 19:00N 51°27' E 003°35'0 0.0
2017-Aug-13 18:31N 51°27' E 003°35'0 0.0
2017-Aug-13 18:00N 51°27' E 003°35'0 0.0
2017-Aug-13 17:30N 51°27' E 003°35'0 0.0
2017-Aug-13 17:00N 51°27' E 003°35'0 0.0
2017-Aug-13 16:30N 51°27' E 003°35'0 0.0
2017-Aug-13 16:01N 51°27' E 003°35'0 0.0
2017-Aug-13 15:30N 51°27' E 003°35'0 0.0
2017-Aug-13 15:00N 51°27' E 003°35'0 0.0
2017-Aug-13 14:30N 51°27' E 003°35'0 0.0
2017-Aug-13 14:00N 51°27' E 003°35'0 0.0
2017-Aug-13 13:30N 51°27' E 003°35'0 0.0
2017-Aug-13 13:01N 51°27' E 003°35'0 0.0
2017-Aug-13 12:31N 51°27' E 003°35'0 0.0
2017-Aug-13 12:01N 51°27' E 003°35'0 0.0
2017-Aug-13 11:30N 51°27' E 003°35'0 0.0
2017-Aug-13 11:00N 51°27' E 003°35'0 0.0
2017-Aug-13 10:31N 51°27' E 003°35'0 0.0
2017-Aug-13 10:00N 51°27' E 003°35'0 0.0
2017-Aug-13 09:30N 51°27' E 003°35'0 0.0
2017-Aug-13 09:00N 51°27' E 003°35'0 0.0
2017-Aug-13 08:30N 51°27' E 003°35'0 0.0
2017-Aug-13 08:01N 51°27' E 003°35'0 0.0
2017-Aug-13 07:31N 51°27' E 003°35'0 0.0
2017-Aug-13 07:01N 51°27' E 003°35'0 0.0
2017-Aug-13 06:30N 51°27' E 003°35'0 0.0
2017-Aug-13 06:01N 51°27' E 003°35'0 0.0
2017-Aug-13 05:30N 51°27' E 003°35'0 0.0
2017-Aug-13 05:01N 51°27' E 003°35'0 0.0
2017-Aug-13 04:30N 51°27' E 003°35'0 0.0
2017-Aug-13 04:00N 51°27' E 003°35'0 0.0
2017-Aug-13 03:30N 51°27' E 003°35'0 0.0
2017-Aug-13 03:00N 51°27' E 003°35'0 0.0
2017-Aug-13 02:31N 51°27' E 003°35'0 0.0
2017-Aug-13 02:01N 51°27' E 003°35'0 0.0
2017-Aug-13 01:31N 51°27' E 003°35'0 0.0
2017-Aug-13 01:01N 51°27' E 003°35'0 0.0
2017-Aug-13 00:30N 51°27' E 003°35'0 0.0
2017-Aug-13 00:00N 51°27' E 003°35'0 0.0
2017-Aug-12 23:30N 51°27' E 003°35'0 0.0
2017-Aug-12 23:01N 51°27' E 003°35'0 0.0
2017-Aug-12 22:31N 51°27' E 003°35'0 0.0
2017-Aug-12 22:00N 51°27' E 003°35'0 0.0
2017-Aug-12 21:30N 51°27' E 003°35'0 0.0
2017-Aug-12 21:01N 51°27' E 003°35'0 0.0
2017-Aug-12 20:30N 51°27' E 003°35'0 0.0
2017-Aug-12 19:59N 51°27' E 003°35'0 0.0
2017-Aug-12 19:30N 51°27' E 003°35'0 0.0
2017-Aug-12 19:01N 51°27' E 003°35'0 0.0
2017-Aug-12 18:30N 51°27' E 003°35'0 0.0
2017-Aug-12 18:00N 51°27' E 003°35'0 0.0
2017-Aug-12 17:31N 51°27' E 003°35'0 0.0
2017-Aug-12 17:00N 51°27' E 003°35'0 0.0
2017-Aug-12 16:30N 51°27' E 003°35'0 0.0
2017-Aug-12 16:00N 51°27' E 003°35'0 0.0
2017-Aug-12 15:31N 51°27' E 003°35'0 0.0
2017-Aug-12 15:00N 51°27' E 003°35'0 0.0
2017-Aug-12 14:30N 51°27' E 003°35'0 0.0
2017-Aug-12 14:01N 51°27' E 003°35'0 0.0
2017-Aug-12 13:31N 51°27' E 003°35'0 0.0
2017-Aug-12 13:00N 51°27' E 003°35'0 0.0
2017-Aug-12 12:29N 51°27' E 003°35'0 0.0
2017-Aug-12 12:00N 51°27' E 003°35'0 0.0
2017-Aug-12 11:31N 51°27' E 003°35'0 0.0
2017-Aug-12 11:00N 51°27' E 003°35'0 0.0
2017-Aug-12 10:30N 51°27' E 003°35'0 0.0
2017-Aug-12 10:01N 51°27' E 003°35'0 0.0
2017-Aug-12 09:31N 51°27' E 003°35'0 0.0
2017-Aug-12 09:01N 51°27' E 003°35'0 0.0
2017-Aug-12 08:30N 51°27' E 003°35'0 0.0
2017-Aug-12 08:01N 51°27' E 003°35'0 0.0
2017-Aug-12 07:30N 51°27' E 003°35'0 0.0
2017-Aug-12 07:01N 51°27' E 003°35'0 0.0
2017-Aug-12 06:30N 51°27' E 003°35'0 0.0
2017-Aug-12 06:00N 51°27' E 003°35'0 0.0
2017-Aug-12 05:30N 51°27' E 003°35'0 0.0
2017-Aug-12 05:01N 51°27' E 003°35'0 0.0
2017-Aug-12 04:31N 51°27' E 003°35'0 0.0
2017-Aug-12 04:01N 51°27' E 003°35'0 0.0
2017-Aug-12 03:31N 51°27' E 003°35'0 0.0
2017-Aug-12 03:00N 51°27' E 003°35'0 0.0
2017-Aug-12 02:30N 51°27' E 003°35'0 0.0
2017-Aug-12 02:01N 51°27' E 003°35'0 0.0
2017-Aug-12 01:30N 51°27' E 003°35'0 0.0
2017-Aug-12 01:01N 51°27' E 003°35'0 0.0
2017-Aug-12 00:30N 51°27' E 003°35'0 0.0
2017-Aug-12 00:00N 51°27' E 003°35'0 0.0
2017-Aug-11 23:31N 51°27' E 003°35'0 0.0
2017-Aug-11 23:00N 51°27' E 003°35'0 0.0
2017-Aug-11 22:30N 51°27' E 003°35'0 0.0
2017-Aug-11 22:00N 51°27' E 003°35'0 0.0
2017-Aug-11 21:31N 51°27' E 003°35'0 0.0
2017-Aug-11 21:00N 51°27' E 003°35'0 0.0
2017-Aug-11 20:31N 51°27' E 003°35'0 0.0
2017-Aug-11 20:00N 51°27' E 003°35'0 0.0
2017-Aug-11 19:30N 51°27' E 003°35'0 0.0
2017-Aug-11 19:00N 51°27' E 003°35'0 0.0
2017-Aug-11 18:31N 51°27' E 003°35'0 0.0
2017-Aug-11 18:00N 51°27' E 003°35'0 0.0
2017-Aug-11 17:30N 51°27' E 003°35'0 0.0
2017-Aug-11 17:00N 51°27' E 003°35'0 0.0
2017-Aug-11 16:30N 51°27' E 003°35'0 0.0
2017-Aug-11 16:01N 51°27' E 003°35'0 0.0
2017-Aug-11 15:30N 51°27' E 003°35'0 0.0
2017-Aug-11 15:00N 51°27' E 003°35'0 0.0
2017-Aug-11 14:00N 51°27' E 003°35'0 0.0
2017-Aug-11 13:30N 51°27' E 003°35'0 0.0
2017-Aug-11 13:00N 51°27' E 003°35'0 0.0
2017-Aug-11 12:30N 51°27' E 003°35'0 0.0
2017-Aug-11 12:00N 51°27' E 003°35'0 0.0
2017-Aug-11 11:30N 51°27' E 003°35'0 0.0
2017-Aug-11 11:00N 51°27' E 003°35'0 0.0
2017-Aug-11 10:30N 51°27' E 003°35'0 0.0
2017-Aug-11 09:59N 51°27' E 003°35'0 0.0
2017-Aug-11 09:30N 51°27' E 003°35'0 0.0
2017-Aug-11 09:01N 51°27' E 003°35'0 0.0
2017-Aug-11 08:31N 51°27' E 003°35'0 0.0
2017-Aug-11 07:58N 51°27' E 003°35'0 0.0
2017-Aug-11 07:30N 51°27' E 003°35'0 0.0
2017-Aug-11 07:00N 51°27' E 003°35'0 0.0
2017-Aug-11 06:30N 51°27' E 003°35'0 0.0
2017-Aug-11 05:59N 51°27' E 003°35'0 0.0
2017-Aug-11 05:30N 51°27' E 003°35'0 0.0
2017-Aug-11 05:00N 51°27' E 003°35'0 0.0
2017-Aug-11 04:30N 51°27' E 003°35'0 0.0
2017-Aug-11 04:00N 51°27' E 003°35'0 0.0
2017-Aug-11 03:30N 51°27' E 003°35'0 0.0
2017-Aug-11 03:00N 51°27' E 003°35'0 0.0
2017-Aug-11 02:30N 51°27' E 003°35'0 0.0
2017-Aug-11 02:00N 51°27' E 003°35'0 0.0
2017-Aug-11 01:30N 51°27' E 003°35'0 0.0
2017-Aug-11 01:00N 51°27' E 003°35'0 0.0
2017-Aug-11 00:30N 51°27' E 003°35'0 0.3
2017-Aug-11 00:00N 51°27' E 003°35'0 0.3
2017-Aug-10 23:30N 51°27' E 003°35'0 0.0
2017-Aug-10 23:00N 51°27' E 003°35'0 0.5
2017-Aug-10 22:30N 51°27' E 003°36'2 4.8
2017-Aug-10 22:01N 51°26' E 003°32'5 9.2
2017-Aug-10 21:30N 51°25' E 003°25'4 8.8
2017-Aug-10 21:00N 51°25' E 003°18'4 8.0
2017-Aug-10 20:30N 51°25' E 003°11'4 8.3
2017-Aug-10 20:00N 51°25' E 003°05'4 8.5
2017-Aug-10 19:30N 51°24' E 002°58'4 8.6
2017-Aug-10 19:00N 51°24' E 002°51'1 1.4
2017-Aug-10 18:30N 51°25' E 002°50'0 0.7
2017-Aug-10 18:01N 51°25' E 002°51'1 1.4
2017-Aug-10 17:31N 51°24' E 002°50'1 2.5
2017-Aug-10 17:01N 51°23' E 002°48'3 5.3
2017-Aug-10 16:30N 51°22' E 002°45'4 7.9
2017-Aug-10 16:01N 51°19' E 002°41'2 4.4
2017-Aug-10 15:31N 51°17' E 002°38'1 2.8
2017-Aug-10 15:00N 51°16' E 002°36'0 0.7
2017-Aug-10 14:30N 51°16' E 002°36'1 2.0
2017-Aug-10 14:00N 51°15' E 002°36'1 2.2
2017-Aug-10 13:31N 51°14' E 002°34'1 1.9
2017-Aug-10 13:00N 51°14' E 002°33'0 0.8
2017-Aug-10 12:30N 51°14' E 002°34'0 0.6
2017-Aug-10 12:00N 51°14' E 002°34'1 1.9
2017-Aug-10 11:31N 51°15' E 002°35'4 8.0
2017-Aug-10 11:00N 51°14' E 002°29'1 1.8
2017-Aug-10 10:30N 51°14' E 002°28'0 0.9
2017-Aug-10 10:00N 51°15' E 002°28'0 0.6
2017-Aug-10 09:30N 51°15' E 002°28'1 1.3
2017-Aug-10 09:00N 51°15' E 002°29'1 2.9
2017-Aug-10 08:31N 51°16' E 002°31'2 3.9
2017-Aug-10 08:00N 51°18' E 002°30'1 1.4
2017-Aug-10 07:30N 51°18' E 002°31'1 2.8
2017-Aug-10 07:00N 51°19' E 002°32'1 1.8
2017-Aug-10 06:30N 51°19' E 002°31'0 0.6
2017-Aug-10 06:00N 51°19' E 002°31'0 1.0
2017-Aug-10 05:31N 51°19' E 002°32'4 7.9
2017-Aug-10 05:00N 51°18' E 002°38'0 0.6
2017-Aug-10 04:30N 51°18' E 002°38'1 2.2
2017-Aug-10 04:00N 51°17' E 002°38'1 1.3
2017-Aug-10 03:30N 51°18' E 002°38'3 5.1
2017-Aug-10 03:00N 51°15' E 002°36'1 2.4
2017-Aug-10 02:30N 51°16' E 002°37'1 2.2
2017-Aug-10 02:00N 51°17' E 002°38'1 2.9
2017-Aug-10 01:30N 51°19' E 002°39'2 3.9
2017-Aug-10 01:01N 51°17' E 002°37'2 3.5
2017-Aug-10 00:30N 51°16' E 002°38'2 4.1
2017-Aug-10 00:00N 51°15' E 002°41'2 4.6
2017-Aug-09 23:30N 51°15' E 002°45'3 5.3
2017-Aug-09 23:00N 51°15' E 002°49'3 5.6
2017-Aug-09 22:30N 51°15' E 002°53'2 3.3
2017-Aug-09 22:00N 51°14' E 002°56'0 0.4
2017-Aug-09 21:30N 51°14' E 002°56'0 0.4
2017-Aug-09 21:00N 51°14' E 002°56'2 3.6
2017-Aug-09 20:31N 51°15' E 002°53'5 9.1
2017-Aug-09 20:00N 51°15' E 002°46'4 8.8
2017-Aug-09 19:30N 51°15' E 002°39'3 5.4
2017-Aug-09 19:00N 51°16' E 002°35'0 0.8
2017-Aug-09 18:31N 51°16' E 002°35'1 1.3
2017-Aug-09 18:00N 51°16' E 002°36'1 2.7
2017-Aug-09 17:30N 51°15' E 002°34'1 1.2
2017-Aug-09 17:00N 51°15' E 002°35'2 3.3
2017-Aug-09 16:30N 51°16' E 002°32'1 2.9
2017-Aug-09 16:00N 51°16' E 002°30'1 1.7
2017-Aug-09 15:30N 51°15' E 002°30'0 0.4
2017-Aug-09 15:00N 51°15' E 002°30'1 1.1
2017-Aug-09 14:30N 51°15' E 002°29'1 2.9
2017-Aug-09 14:00N 51°14' E 002°27'1 1.2
2017-Aug-09 13:30N 51°13' E 002°27'0 1.0
2017-Aug-09 13:00N 51°13' E 002°27'1 0.9
2017-Aug-09 12:21N 51°14' E 002°27'1 2.6
2017-Aug-09 12:00N 51°14' E 002°28'0 0.8
2017-Aug-09 11:30N 51°14' E 002°27'1 1.2
2017-Aug-09 11:00N 51°15' E 002°26'1 1.2
2017-Aug-09 10:30N 51°15' E 002°27'1 1.0
2017-Aug-09 10:01N 51°15' E 002°27'1 2.9
2017-Aug-09 09:30N 51°16' E 002°29'2 3.8
2017-Aug-09 09:00N 51°18' E 002°30'0 1.0
2017-Aug-09 08:30N 51°18' E 002°31'1 2.6
2017-Aug-09 08:00N 51°19' E 002°32'2 4.9
2017-Aug-09 07:30N 51°17' E 002°30'0 0.9
2017-Aug-09 07:00N 51°18' E 002°30'1 1.8
2017-Aug-09 06:31N 51°18' E 002°32'1 1.6
2017-Aug-09 06:00N 51°18' E 002°31'0 0.7
2017-Aug-09 05:30N 51°19' E 002°31'1 1.1
2017-Aug-09 05:00N 51°19' E 002°32'1 1.7
2017-Aug-09 04:30N 51°18' E 002°31'0 1.0
2017-Aug-09 04:00N 51°18' E 002°31'1 1.2
2017-Aug-09 03:30N 51°17' E 002°31'1 1.2
2017-Aug-09 03:00N 51°18' E 002°31'3 5.6
2017-Aug-09 02:30N 51°20' E 002°30'3 6.8
2017-Aug-09 02:00N 51°24' E 002°31'3 6.6
2017-Aug-09 01:30N 51°27' E 002°33'3 7.0
2017-Aug-09 01:00N 51°30' E 002°35'49 2.9
2017-Aug-08 07:48N 52°19' E 002°38'0 0.9
2017-Aug-08 07:21N 52°19' E 002°39'  

Dump ship's entire track history